Airfield :
LOGIN :

Register | Disclaimer

   EN    FR    IT 

 










Legend :    VFR   Marginal VFR   IFR   Intensive IFR   Very Intensive IFR
Visi :
Ceiling :
>= 8 km
>= 3000ft
5 to 8 km
1000 to 3000 ft
1500m to 5 km
500 to 1000 ft
800 to 1500m
200 to 500 ft
< 800m
< 200 ft
Symbols :   Thunderstorms  Fog  Heavy snow  Heavy precipitations  Wind > 20 kt
SIGMETs :     Misc.  Thunderstorms  Icing  Turbulence  Mountain Waves  Volcanic Ashes






- Airport Elevation : 20 ft
- IATA code : TIV


LYTV - Tivat - Montenegro

CURRENT METAR :
  • 301030Z 27005KT 230V320 9999 FEW060 19/05 Q1011 NOSIG

EXPIRED METARs :
  • 301000Z VRB03KT 9999 FEW060 18/06 Q1011 NOSIG
  • 300930Z 23004KT 180V280 9999 FEW060 17/07 Q1012 NOSIG
  • 300900Z 30004KT 260V350 9999 FEW060 17/08 Q1012 NOSIG
  • 300830Z VRB02KT 9999 FEW060 17/07 Q1012 NOSIG
  • 300800Z VRB02KT CAVOK 16/08 Q1012 NOSIG

TAF TAF LYTV
Valid from the 30 at 06:00 until the 31 at 06:00 UTC


300500Z 3006/3106 32008KT 9999 FEW050 TX16/3012Z TN08/3103Z
BECMG 3016/3018 02014KT
TEMPO 3022/3106 02015G25KT



MET'MAP, your aeronautical weather chart ! - Copyright ORBIFLY December 2007 - Disclaimer

ORBIFLY MET'MAP TEAM :

Programming & Development : Alexandra Zaïnal
Concept & original design : Baudouin d'Aumeries
Assistance for programming : Marc-Olivier Méhu
Technical & hardware support : Manuel Goepfert

Contact : metmap@orbifly.com




SOURCES & CREDITS :

   NOAA